Time;durP1;ratioP1;P1;durP2;ratioP2;P2;SDS_P1;SDS_P2;PMS_P1;PMS_P2;Temp;Humidity;BMP_temperature;BMP_pressure;BME280_temperature;BME280_humidity;BME280_pressure;Samples;Min_cycle;Max_cycle;Signal;HPM_P1;HPM_P2
2022/08/07 00:00:59;;;;;;;2.33;1.27;;;22.20;82.40;;;;;;5121603;27;20220;-64
2022/08/07 00:03:25;;;;;;;2.00;1.08;;;22.20;82.50;;;;;;5125778;27;20054;-64
2022/08/07 00:05:52;;;;;;;2.05;1.15;;;22.20;82.40;;;;;;5131335;27;20110;-64
2022/08/07 00:08:19;;;;;;;2.13;1.20;;;22.20;82.50;;;;;;5127613;27;20050;-64
2022/08/07 00:10:45;;;;;;;2.60;1.30;;;22.20;82.50;;;;;;5130391;27;20155;-64
2022/08/07 00:13:10;;;;;;;2.42;1.30;;;22.20;82.50;;;;;;5130443;27;20082;-65
2022/08/07 00:15:36;;;;;;;2.70;1.60;;;22.20;82.50;;;;;;5130489;27;20472;-64
2022/08/07 00:18:03;;;;;;;4.07;1.45;;;22.20;82.50;;;;;;5129799;27;20043;-64
2022/08/07 00:20:29;;;;;;;2.65;1.48;;;22.20;82.50;;;;;;5131479;27;20053;-64
2022/08/07 00:22:54;;;;;;;2.88;1.35;;;22.20;82.60;;;;;;5131164;27;20117;-64
2022/08/07 00:25:22;;;;;;;1.70;1.20;;;22.20;82.60;;;;;;5131147;27;20092;-64
2022/08/07 00:27:47;;;;;;;1.92;1.20;;;22.20;82.60;;;;;;5131432;27;20047;-64
2022/08/07 00:30:13;;;;;;;2.78;1.48;;;22.20;82.60;;;;;;5104269;27;20057;-65
2022/08/07 00:32:39;;;;;;;1.65;1.15;;;22.20;82.60;;;;;;5131176;27;20099;-64
2022/08/07 00:35:05;;;;;;;4.70;1.50;;;22.20;82.60;;;;;;5129588;27;20463;-64
2022/08/07 00:37:31;;;;;;;1.88;1.17;;;22.20;82.60;;;;;;5129680;27;20047;-64
2022/08/07 00:39:57;;;;;;;1.67;1.30;;;22.20;82.60;;;;;;5125394;27;20046;-64
2022/08/07 00:42:23;;;;;;;2.10;1.38;;;22.20;82.70;;;;;;5110615;28;20062;-64
2022/08/07 00:44:49;;;;;;;2.15;1.25;;;22.20;82.70;;;;;;5110661;28;20044;-64
2022/08/07 00:47:15;;;;;;;2.95;1.50;;;22.20;82.70;;;;;;5109574;27;20086;-64
2022/08/07 00:49:40;;;;;;;1.80;1.23;;;22.20;82.70;;;;;;5130346;27;20178;-64
2022/08/07 00:52:07;;;;;;;2.45;1.45;;;22.20;82.70;;;;;;5130753;27;20054;-64
2022/08/07 00:54:33;;;;;;;2.90;1.40;;;22.20;82.70;;;;;;5131222;27;20092;-64
2022/08/07 00:56:59;;;;;;;2.10;1.63;;;22.20;82.80;;;;;;5128372;27;20054;-64
2022/08/07 00:59:25;;;;;;;3.13;1.50;;;22.20;82.80;;;;;;5110513;28;20043;-64
2022/08/07 01:01:51;;;;;;;1.45;1.25;;;22.20;82.80;;;;;;5109564;28;20050;-64
2022/08/07 01:04:17;;;;;;;1.88;1.20;;;22.20;82.80;;;;;;5109165;28;20092;-64
2022/08/07 01:06:44;;;;;;;2.03;1.15;;;22.10;82.80;;;;;;5110786;28;20147;-64
2022/08/07 01:09:10;;;;;;;2.22;1.20;;;22.20;82.90;;;;;;5117716;27;20047;-71
2022/08/07 01:11:36;;;;;;;2.15;1.10;;;22.10;82.80;;;;;;5111593;28;20054;-65
2022/08/07 01:14:03;;;;;;;1.70;1.20;;;22.20;82.90;;;;;;5128493;27;20096;-65
2022/08/07 01:16:29;;;;;;;1.88;1.30;;;22.10;82.90;;;;;;5129227;27;20119;-64
2022/08/07 01:18:56;;;;;;;2.78;1.20;;;22.10;82.90;;;;;;5129407;27;20047;-65
2022/08/07 01:21:25;;;;;;;2.22;1.27;;;22.10;83.50;;;;;;5130081;27;20054;-64
2022/08/07 01:23:52;;;;;;;1.75;1.00;;;22.10;82.90;;;;;;5120598;27;20526;-64
2022/08/07 01:26:20;;;;;;;2.17;1.35;;;22.10;82.90;;;;;;5129841;27;20154;-64
2022/08/07 01:28:48;;;;;;;2.42;1.35;;;22.10;82.90;;;;;;5129904;27;20047;-64
2022/08/07 01:31:15;;;;;;;2.03;1.30;;;22.10;83.00;;;;;;5128901;27;20518;-65
2022/08/07 01:33:41;;;;;;;2.05;1.38;;;22.10;83.00;;;;;;5128537;27;20487;-64
2022/08/07 01:36:10;;;;;;;1.80;1.08;;;22.10;83.00;;;;;;5124254;27;20404;-65
2022/08/07 01:38:37;;;;;;;1.50;1.02;;;22.10;83.00;;;;;;5116907;27;20108;-64
2022/08/07 01:41:05;;;;;;;2.60;1.23;;;22.10;83.00;;;;;;5121971;27;20043;-64
2022/08/07 01:43:32;;;;;;;2.10;1.13;;;22.10;83.00;;;;;;5130127;27;20050;-64
2022/08/07 01:45:58;;;;;;;1.33;0.98;;;22.10;83.10;;;;;;5128990;27;20079;-64
2022/08/07 01:48:25;;;;;;;2.15;1.20;;;22.10;83.00;;;;;;5128788;27;20043;-64
2022/08/07 01:51:17;;;;;;;2.40;1.27;;;22.10;83.10;;;;;;5111960;27;20107;-64
2022/08/07 01:53:46;;;;;;;2.67;1.10;;;22.10;83.10;;;;;;5125371;27;20576;-64
2022/08/07 01:56:16;;;;;;;1.90;1.20;;;22.10;83.10;;;;;;5128093;28;20039;-64
2022/08/07 01:58:49;;;;;;;1.88;1.27;;;22.10;83.10;;;;;;5127528;28;20046;-64
2022/08/07 02:01:22;;;;;;;2.08;1.27;;;22.10;83.10;;;;;;5110360;28;20047;-64
2022/08/07 02:03:53;;;;;;;2.75;1.30;;;22.10;83.70;;;;;;5106599;28;20066;-64
2022/08/07 02:06:20;;;;;;;1.77;1.17;;;22.10;83.20;;;;;;5126591;28;20050;-64
2022/08/07 02:08:47;;;;;;;1.95;1.20;;;22.10;83.10;;;;;;5123403;28;20054;-64
2022/08/07 02:11:13;;;;;;;1.77;1.20;;;22.10;83.20;;;;;;5123942;28;20069;-64
2022/08/07 02:13:41;;;;;;;2.35;1.35;;;22.10;83.20;;;;;;5129641;28;20480;-65
2022/08/07 02:16:08;;;;;;;2.13;1.50;;;22.10;83.20;;;;;;5128231;28;20053;-64
2022/08/07 02:18:37;;;;;;;2.15;1.35;;;22.10;83.20;;;;;;5129015;28;20047;-64
2022/08/07 02:21:06;;;;;;;3.75;1.40;;;22.10;83.20;;;;;;5129735;28;20047;-64
2022/08/07 02:23:39;;;;;;;1.20;1.00;;;22.10;83.20;;;;;;5131185;27;20278;-64
2022/08/07 02:26:07;;;;;;;1.63;1.10;;;22.10;83.20;;;;;;5133066;27;20042;-64
2022/08/07 02:28:35;;;;;;;2.60;1.55;;;22.10;83.20;;;;;;5132594;27;20043;-64
2022/08/07 02:31:03;;;;;;;1.40;0.95;;;22.10;83.20;;;;;;5124618;27;20050;-64
2022/08/07 02:33:30;;;;;;;1.50;1.00;;;22.10;83.20;;;;;;5132256;27;20078;-63
2022/08/07 02:35:57;;;;;;;2.25;1.30;;;22.10;83.30;;;;;;5133814;27;20058;-64
2022/08/07 02:38:29;;;;;;;2.42;1.05;;;22.10;83.30;;;;;;5132164;27;20115;-64
2022/08/07 02:40:57;;;;;;;2.08;1.27;;;22.10;83.30;;;;;;5125220;27;20114;-64
2022/08/07 02:43:25;;;;;;;1.70;1.10;;;22.10;83.30;;;;;;5133131;27;20107;-64
2022/08/07 02:45:53;;;;;;;1.67;1.30;;;22.10;83.30;;;;;;5132136;27;20035;-64
2022/08/07 02:48:19;;;;;;;1.95;1.27;;;22.00;83.30;;;;;;5122208;27;20122;-64
2022/08/07 02:50:49;;;;;;;2.72;1.60;;;22.00;83.30;;;;;;5123849;27;20138;-64
2022/08/07 02:53:23;;;;;;;2.42;1.48;;;22.00;83.30;;;;;;5123923;27;20044;-64
2022/08/07 02:55:51;;;;;;;1.38;1.10;;;22.00;83.30;;;;;;5118378;27;20043;-64
2022/08/07 02:58:20;;;;;;;1.98;1.10;;;22.00;83.30;;;;;;5132904;27;20178;-64
2022/08/07 03:00:50;;;;;;;1.75;1.23;;;22.00;83.30;;;;;;5132491;27;20055;-64
2022/08/07 03:03:17;;;;;;;1.70;1.23;;;22.00;83.30;;;;;;5122062;27;20054;-64
2022/08/07 03:05:44;;;;;;;1.20;1.10;;;22.00;83.30;;;;;;5112852;28;20083;-64
2022/08/07 03:08:11;;;;;;;2.30;1.30;;;22.00;83.30;;;;;;5125869;27;20058;-64
2022/08/07 03:10:38;;;;;;;2.92;1.30;;;22.00;83.30;;;;;;5100683;28;20055;-64
2022/08/07 03:13:05;;;;;;;2.28;1.45;;;22.00;83.40;;;;;;5112534;28;20549;-64
2022/08/07 03:15:32;;;;;;;1.63;0.98;;;22.00;83.40;;;;;;5115610;27;20193;-66
2022/08/07 03:17:59;;;;;;;2.35;1.15;;;22.00;83.40;;;;;;5101408;27;20051;-64
2022/08/07 03:20:26;;;;;;;2.30;1.30;;;22.00;83.40;;;;;;5131594;27;20488;-64
2022/08/07 03:22:53;;;;;;;2.25;1.40;;;22.00;83.40;;;;;;5112936;27;20040;-64
2022/08/07 03:25:19;;;;;;;2.28;1.30;;;22.00;83.50;;;;;;5121708;27;20047;-64
2022/08/07 03:27:47;;;;;;;1.83;1.10;;;22.00;83.40;;;;;;5120252;27;20480;-64
2022/08/07 03:30:13;;;;;;;1.55;0.95;;;22.00;84.10;;;;;;5120916;27;20063;-64
2022/08/07 03:32:42;;;;;;;2.33;1.30;;;22.00;83.50;;;;;;5128894;27;20050;-64
2022/08/07 03:35:17;;;;;;;2.83;1.20;;;22.00;83.50;;;;;;5130841;27;20051;-64
2022/08/07 03:37:45;;;;;;;2.38;1.20;;;22.00;83.50;;;;;;5131421;27;20142;-64
2022/08/07 03:40:12;;;;;;;1.02;0.90;;;22.00;83.50;;;;;;5125499;27;20162;-64
2022/08/07 03:42:38;;;;;;;2.67;1.33;;;22.00;83.50;;;;;;5132757;27;20062;-64
2022/08/07 03:45:04;;;;;;;2.03;1.20;;;22.00;83.50;;;;;;5132458;27;20047;-64
2022/08/07 03:47:31;;;;;;;1.83;1.25;;;22.00;83.60;;;;;;5131236;27;20055;-64
2022/08/07 03:49:57;;;;;;;2.42;1.25;;;22.00;83.60;;;;;;5109260;28;20047;-65
2022/08/07 03:52:28;;;;;;;1.77;1.20;;;22.00;83.60;;;;;;5111028;28;20497;-64
2022/08/07 03:54:57;;;;;;;2.22;1.35;;;22.00;83.60;;;;;;5118356;27;20051;-64
2022/08/07 03:57:25;;;;;;;2.97;1.20;;;22.00;83.60;;;;;;5109785;27;20043;-64
2022/08/07 03:59:51;;;;;;;1.40;1.10;;;22.00;83.60;;;;;;5111708;28;20051;-65
2022/08/07 04:02:17;;;;;;;2.17;1.23;;;22.00;83.60;;;;;;5110325;28;20392;-64
2022/08/07 04:04:43;;;;;;;1.23;1.00;;;22.00;83.60;;;;;;5125775;27;20058;-64
2022/08/07 04:07:09;;;;;;;1.90;1.13;;;22.00;83.70;;;;;;5132306;27;20043;-64
2022/08/07 04:09:35;;;;;;;1.83;1.10;;;22.00;83.70;;;;;;5118957;27;20572;-64
2022/08/07 04:12:02;;;;;;;2.25;1.20;;;21.90;83.60;;;;;;5132090;27;20464;-64
2022/08/07 04:14:28;;;;;;;2.72;1.45;;;22.00;83.70;;;;;;5131414;27;20043;-64
2022/08/07 04:16:54;;;;;;;2.15;1.33;;;22.00;83.70;;;;;;5130498;27;20496;-64
2022/08/07 04:19:19;;;;;;;2.03;1.15;;;22.00;83.70;;;;;;5111890;27;20054;-64
2022/08/07 04:21:45;;;;;;;1.73;1.30;;;22.00;83.70;;;;;;5111452;28;20404;-64
2022/08/07 04:24:13;;;;;;;2.38;1.40;;;22.00;83.70;;;;;;5111367;28;20188;-64
2022/08/07 04:26:39;;;;;;;2.33;1.20;;;22.00;83.70;;;;;;5110286;28;20642;-64
2022/08/07 04:29:08;;;;;;;1.02;0.90;;;22.00;83.70;;;;;;5111217;28;20083;-64
2022/08/07 04:31:36;;;;;;;2.45;1.13;;;22.00;83.80;;;;;;5114104;27;20065;-64
2022/08/07 04:34:03;;;;;;;2.08;1.17;;;22.00;83.80;;;;;;5114690;27;20519;-64
2022/08/07 04:36:28;;;;;;;1.65;1.10;;;22.00;83.80;;;;;;5110352;28;20039;-64
2022/08/07 04:38:54;;;;;;;1.55;1.20;;;22.00;83.80;;;;;;5117186;27;20061;-64
2022/08/07 04:41:20;;;;;;;1.67;1.05;;;21.90;83.70;;;;;;5115743;27;20047;-64
2022/08/07 04:43:46;;;;;;;2.35;1.20;;;21.90;83.80;;;;;;5116786;27;20516;-64
2022/08/07 04:46:25;;;;;;;2.30;1.20;;;21.90;83.80;;;;;;5129963;27;20054;-64
2022/08/07 04:49:16;;;;;;;2.00;1.35;;;21.90;83.80;;;;;;5116022;27;20039;-64
2022/08/07 04:51:42;;;;;;;1.88;1.20;;;21.90;83.80;;;;;;5118785;27;20055;-64
2022/08/07 04:54:32;;;;;;;3.03;1.48;;;21.90;83.80;;;;;;5131086;27;20095;-64
2022/08/07 04:57:04;;;;;;;3.28;1.48;;;21.90;83.80;;;;;;5130627;27;20051;-64
2022/08/07 04:59:42;;;;;;;1.63;1.13;;;21.90;83.90;;;;;;5129979;27;20557;-64
2022/08/07 05:02:19;;;;;;;1.63;1.13;;;21.90;83.90;;;;;;5129941;27;20046;-64
2022/08/07 05:04:55;;;;;;;2.72;1.23;;;21.90;83.90;;;;;;5129556;27;20047;-64
2022/08/07 05:07:42;;;;;;;1.67;1.20;;;21.90;84.00;;;;;;5131132;27;20121;-64
2022/08/07 05:10:49;;;;;;;2.35;1.45;;;21.90;84.00;;;;;;5119745;27;20574;-64
2022/08/07 05:13:35;;;;;;;2.67;1.40;;;21.90;84.00;;;;;;5026824;28;20053;-64
2022/08/07 05:16:06;;;;;;;2.40;1.30;;;21.90;84.00;;;;;;5124617;27;20133;-64
2022/08/07 05:18:35;;;;;;;3.47;1.67;;;21.90;84.00;;;;;;5120726;27;20062;-64
2022/08/07 05:21:08;;;;;;;2.17;1.30;;;21.90;84.00;;;;;;5130274;27;20096;-64
2022/08/07 05:23:40;;;;;;;2.17;1.42;;;21.90;84.10;;;;;;5109902;28;20177;-64
2022/08/07 05:26:12;;;;;;;2.97;1.48;;;21.90;84.10;;;;;;5109960;28;20107;-64
2022/08/07 05:28:40;;;;;;;2.65;1.38;;;21.90;84.10;;;;;;5109602;28;20541;-64
2022/08/07 05:31:09;;;;;;;2.30;1.38;;;21.90;84.20;;;;;;5109006;28;20528;-65
2022/08/07 05:33:36;;;;;;;1.80;1.10;;;21.90;84.10;;;;;;5113474;27;20058;-64
2022/08/07 05:36:05;;;;;;;2.83;1.30;;;21.90;84.10;;;;;;5130493;27;20054;-65
2022/08/07 05:38:32;;;;;;;2.63;1.45;;;21.90;84.20;;;;;;5123465;27;20560;-64
2022/08/07 05:41:00;;;;;;;1.85;1.20;;;21.90;84.20;;;;;;5118157;27;20078;-64
2022/08/07 05:43:25;;;;;;;1.65;1.15;;;21.90;84.30;;;;;;5109791;28;20047;-64
2022/08/07 05:45:51;;;;;;;1.75;1.20;;;21.90;84.30;;;;;;5112149;27;20043;-64
2022/08/07 05:48:19;;;;;;;1.65;1.15;;;21.90;84.30;;;;;;5129422;27;20047;-64
2022/08/07 05:50:46;;;;;;;1.38;1.20;;;22.00;84.30;;;;;;5129894;27;20062;-65
2022/08/07 05:53:12;;;;;;;1.80;1.25;;;22.00;84.30;;;;;;5111151;28;20047;-64
2022/08/07 05:55:39;;;;;;;1.73;1.10;;;22.00;84.40;;;;;;5111024;28;20395;-65
2022/08/07 05:58:05;;;;;;;2.45;1.35;;;22.00;84.30;;;;;;5129596;27;20050;-64
2022/08/07 06:00:33;;;;;;;2.25;1.20;;;22.00;84.30;;;;;;5128987;28;20047;-65
2022/08/07 06:03:02;;;;;;;2.47;1.30;;;22.00;84.40;;;;;;5123216;28;20403;-65
2022/08/07 06:05:30;;;;;;;2.22;1.50;;;22.00;84.40;;;;;;5129598;28;20043;-65
2022/08/07 06:07:58;;;;;;;2.45;1.30;;;22.00;84.40;;;;;;5128020;28;20095;-65
2022/08/07 06:10:24;;;;;;;1.90;1.15;;;22.00;84.40;;;;;;5121140;28;20053;-65
2022/08/07 06:12:50;;;;;;;1.65;1.20;;;22.00;84.40;;;;;;5111650;28;20063;-65
2022/08/07 06:15:17;;;;;;;1.98;1.10;;;22.00;84.40;;;;;;5108375;28;20047;-65
2022/08/07 06:17:45;;;;;;;1.83;1.10;;;22.00;84.40;;;;;;5109018;28;20054;-65
2022/08/07 06:20:12;;;;;;;1.25;1.15;;;22.00;84.40;;;;;;5108801;28;20051;-65
2022/08/07 06:22:41;;;;;;;1.15;0.90;;;22.00;84.40;;;;;;5109040;28;20048;-65
2022/08/07 06:25:07;;;;;;;1.45;1.10;;;22.00;84.40;;;;;;5118010;28;20054;-65
2022/08/07 06:27:33;;;;;;;1.98;1.27;;;22.00;84.40;;;;;;5129845;28;20395;-65
2022/08/07 06:29:59;;;;;;;1.73;1.00;;;22.00;84.40;;;;;;5129602;28;20122;-65
2022/08/07 06:32:25;;;;;;;2.45;1.10;;;22.00;84.50;;;;;;5128782;28;20051;-65
2022/08/07 06:34:51;;;;;;;1.65;1.13;;;22.10;84.50;;;;;;5118424;28;20108;-65
2022/08/07 06:37:16;;;;;;;1.98;1.00;;;22.10;84.50;;;;;;5110390;28;20146;-65
2022/08/07 06:39:42;;;;;;;1.85;1.25;;;22.10;84.50;;;;;;5117540;28;20044;-65
2022/08/07 06:42:14;;;;;;;2.20;1.20;;;22.10;84.50;;;;;;5128187;28;20122;-65
2022/08/07 06:44:42;;;;;;;1.40;1.00;;;22.10;84.50;;;;;;5120180;28;20057;-66
2022/08/07 06:47:08;;;;;;;1.63;1.00;;;22.10;84.50;;;;;;5128667;28;20222;-66
2022/08/07 06:49:34;;;;;;;1.85;0.90;;;22.10;85.20;;;;;;5128906;28;20152;-66
2022/08/07 06:52:01;;;;;;;1.35;1.20;;;22.10;84.60;;;;;;5129231;28;20131;-66
2022/08/07 06:54:28;;;;;;;1.95;1.08;;;22.10;84.50;;;;;;5123501;28;20047;-66
2022/08/07 06:56:55;;;;;;;2.08;1.17;;;22.10;85.20;;;;;;5114566;28;20138;-65
2022/08/07 06:59:31;;;;;;;1.30;1.13;;;22.10;84.60;;;;;;5118144;28;20070;-65
2022/08/07 07:01:59;;;;;;;2.20;1.25;;;22.10;84.60;;;;;;5128174;28;20502;-65
2022/08/07 07:04:25;;;;;;;1.27;0.90;;;22.10;84.80;;;;;;5128335;28;20082;-66
2022/08/07 07:06:52;;;;;;;1.58;1.17;;;22.10;84.70;;;;;;5129109;28;20395;-65
2022/08/07 07:09:26;;;;;;;1.85;1.30;;;22.10;84.60;;;;;;5104859;28;20059;-65
2022/08/07 07:12:02;;;;;;;2.05;1.15;;;22.10;84.60;;;;;;5130520;27;20058;-65
2022/08/07 07:14:31;;;;;;;;;;;22.10;84.60;;;;;;5133179;27;20095;-65
2022/08/07 07:17:01;;;;;;;1.27;1.05;;;22.20;84.80;;;;;;5126212;27;19942;-66
2022/08/07 07:19:37;;;;;;;1.40;1.02;;;22.10;84.60;;;;;;5120453;27;20618;-68
2022/08/07 07:22:03;;;;;;;1.55;1.00;;;22.10;84.50;;;;;;5112043;27;20052;-65
2022/08/07 07:24:30;;;;;;;1.73;1.20;;;22.20;84.60;;;;;;5112584;28;20051;-65
2022/08/07 07:26:58;;;;;;;1.60;0.90;;;22.20;84.60;;;;;;5093796;28;20043;-65
2022/08/07 07:29:26;;;;;;;2.08;1.38;;;22.20;84.70;;;;;;5112421;28;20053;-65
2022/08/07 07:31:54;;;;;;;1.95;1.20;;;22.20;84.70;;;;;;5124200;27;20047;-65
2022/08/07 07:34:28;;;;;;;1.33;1.10;;;22.20;84.70;;;;;;5131723;27;20051;-65
2022/08/07 07:36:56;;;;;;;2.22;1.10;;;22.20;84.70;;;;;;5132365;27;20047;-65
2022/08/07 07:39:23;;;;;;;2.22;1.45;;;22.20;84.70;;;;;;5123960;27;20547;-65
2022/08/07 07:41:50;;;;;;;2.20;1.23;;;22.20;84.70;;;;;;5117231;27;20047;-65
2022/08/07 07:44:17;;;;;;;1.85;1.17;;;22.20;85.30;;;;;;5111981;28;20055;-65
2022/08/07 07:46:44;;;;;;;1.95;1.20;;;22.20;84.70;;;;;;5124853;27;20122;-65
2022/08/07 07:49:13;;;;;;;1.92;1.30;;;22.20;84.70;;;;;;5131706;27;20042;-65
2022/08/07 07:51:42;;;;;;;1.73;1.27;;;22.20;84.70;;;;;;5132396;27;20500;-65
2022/08/07 07:54:10;;;;;;;2.40;1.38;;;22.20;84.70;;;;;;5125302;27;20051;-66
2022/08/07 07:56:37;;;;;;;2.50;1.27;;;22.20;84.70;;;;;;5111563;28;20048;-65
2022/08/07 07:59:04;;;;;;;2.47;1.30;;;22.20;84.70;;;;;;5131445;27;20066;-65
2022/08/07 08:01:31;;;;;;;1.90;1.30;;;22.20;84.70;;;;;;5130981;27;20135;-65
2022/08/07 08:04:02;;;;;;;2.47;1.20;;;22.20;84.70;;;;;;5121837;27;20484;-65
2022/08/07 08:06:29;;;;;;;1.25;1.00;;;22.20;84.70;;;;;;5118657;27;20043;-65
2022/08/07 08:08:56;;;;;;;2.65;1.33;;;22.30;84.70;;;;;;5129463;27;20510;-65
2022/08/07 08:11:22;;;;;;;2.20;1.40;;;22.20;84.70;;;;;;5131574;27;20771;-65
2022/08/07 08:13:48;;;;;;;1.65;1.13;;;22.20;84.70;;;;;;5131545;27;20082;-65
2022/08/07 08:16:18;;;;;;;1.70;1.15;;;22.30;85.30;;;;;;5130278;27;20054;-65
2022/08/07 08:18:46;;;;;;;2.28;1.33;;;22.30;84.70;;;;;;5131379;27;20039;-66
2022/08/07 08:27:07;;;;;;;1.88;1.23;;;22.30;84.70;;;;;;5114927;27;20628;-66
2022/08/07 08:29:39;;;;;;;1.95;1.23;;;22.30;84.70;;;;;;5106940;27;20130;-65
2022/08/07 08:32:08;;;;;;;2.47;1.40;;;22.30;84.70;;;;;;5115812;27;20556;-65
2022/08/07 08:34:37;;;;;;;2.10;1.30;;;22.30;85.30;;;;;;5095372;27;20108;-65
2022/08/07 08:37:04;;;;;;;2.90;1.20;;;22.30;84.70;;;;;;5119314;27;20055;-65
2022/08/07 08:39:31;;;;;;;2.72;1.38;;;22.30;84.70;;;;;;5121175;27;20104;-66
2022/08/07 08:42:03;;;;;;;1.90;1.35;;;22.30;84.70;;;;;;5096928;27;20051;-65
2022/08/07 08:44:42;;;;;;;2.30;1.25;;;22.30;84.70;;;;;;5127367;27;20114;-65
2022/08/07 08:47:26;;;;;;;2.15;1.20;;;22.30;84.70;;;;;;5119835;27;20114;-65
2022/08/07 08:50:24;;;;;;;2.75;1.27;;;22.30;84.70;;;;;;5121860;27;20039;-65
2022/08/07 08:53:21;;;;;;;1.77;1.15;;;22.30;84.70;;;;;;5104612;27;20407;-66
2022/08/07 08:55:49;;;;;;;2.73;1.40;;;22.30;84.70;;;;;;5111668;28;20055;-72
2022/08/07 08:58:35;;;;;;;2.88;1.40;;;22.30;85.30;;;;;;5140728;27;20372;-74
2022/08/07 09:01:30;;;;;;;2.38;1.30;;;22.30;84.70;;;;;;5112708;27;20046;-75
2022/08/07 09:04:12;;;;;;;1.40;1.08;;;22.30;84.70;;;;;;5126932;27;20059;-68
2022/08/07 09:07:04;;;;;;;1.90;1.20;;;22.30;84.70;;;;;;5122576;27;20051;-77
2022/08/07 09:09:53;;;;;;;1.80;1.10;;;22.30;84.70;;;;;;5123841;27;20112;-65
2022/08/07 09:12:37;;;;;;;2.47;1.35;;;22.30;84.70;;;;;;5120920;27;20065;-65
2022/08/07 09:15:26;;;;;;;2.95;1.35;;;22.30;84.70;;;;;;5129973;27;20476;-65
2022/08/07 09:18:09;;;;;;;2.78;1.60;;;22.30;84.60;;;;;;5130242;27;20051;-65
2022/08/07 09:20:49;;;;;;;1.95;1.23;;;22.30;84.60;;;;;;5102734;27;20055;-65
2022/08/07 09:23:37;;;;;;;2.13;1.25;;;22.30;85.20;;;;;;5146171;27;20049;-65
2022/08/07 09:26:28;;;;;;;2.47;1.30;;;22.40;84.60;;;;;;5123844;27;20046;-65
2022/08/07 09:29:05;;;;;;;1.95;1.13;;;22.40;84.60;;;;;;5134500;27;20067;-66
2022/08/07 09:31:31;;;;;;;3.08;1.48;;;22.40;84.60;;;;;;5144572;27;20122;-65
2022/08/07 09:34:24;;;;;;;2.67;1.45;;;22.40;84.60;;;;;;5140934;27;20051;-65
2022/08/07 09:37:05;;;;;;;2.92;1.35;;;22.40;84.60;;;;;;5150788;27;20095;-65
2022/08/07 09:39:56;;;;;;;2.08;1.25;;;22.30;84.50;;;;;;5142269;27;20042;-65
2022/08/07 09:42:53;;;;;;;2.20;1.42;;;22.40;84.50;;;;;;5138074;27;20066;-65
2022/08/07 09:45:46;;;;;;;3.42;1.92;;;22.40;84.60;;;;;;5136636;27;20041;-65
2022/08/07 09:48:25;;;;;;;2.33;1.33;;;22.40;84.50;;;;;;5146918;27;20051;-65
2022/08/07 09:51:09;;;;;;;3.15;1.45;;;22.30;84.50;;;;;;5142169;27;20092;-65
2022/08/07 09:53:39;;;;;;;2.60;1.30;;;22.40;84.50;;;;;;5128664;27;20430;-65
2022/08/07 09:56:18;;;;;;;3.10;1.25;;;22.40;84.50;;;;;;5124195;27;20053;-65
2022/08/07 09:59:26;;;;;;;2.53;1.27;;;22.40;84.50;;;;;;5139915;27;20055;-65
2022/08/07 10:01:58;;;;;;;2.28;1.30;;;22.30;84.50;;;;;;5134383;27;20047;-65
2022/08/07 10:05:02;;;;;;;3.05;1.42;;;22.30;84.50;;;;;;5143014;27;20042;-65
2022/08/07 10:07:43;;;;;;;2.38;1.42;;;22.40;84.50;;;;;;5146445;27;20035;-65
2022/08/07 10:10:16;;;;;;;2.38;1.50;;;22.40;84.50;;;;;;5137901;27;20130;-65
2022/08/07 10:12:58;;;;;;;1.63;1.20;;;22.40;84.50;;;;;;5139547;27;20077;-66
2022/08/07 10:15:42;;;;;;;2.33;1.33;;;22.40;84.50;;;;;;5141010;27;20046;-63
2022/08/07 10:18:26;;;;;;;2.60;1.63;;;22.40;84.50;;;;;;5130233;27;20050;-65
2022/08/07 10:21:23;;;;;;;2.28;1.23;;;22.40;84.50;;;;;;5131535;27;20594;-66
2022/08/07 10:24:22;;;;;;;1.87;1.30;;;22.40;84.50;;;;;;5129243;28;20062;-65
2022/08/07 10:27:08;;;;;;;2.28;1.27;;;22.40;84.50;;;;;;5126633;27;20126;-65
2022/08/07 10:29:57;;;;;;;2.40;1.30;;;22.40;84.50;;;;;;5126886;27;20043;-65
2022/08/07 10:32:31;;;;;;;2.75;1.02;;;22.40;84.50;;;;;;5129722;27;20492;-65
2022/08/07 10:35:00;;;;;;;2.55;1.20;;;22.40;84.50;;;;;;5129979;28;20063;-65
2022/08/07 10:38:03;;;;;;;1.45;1.23;;;22.40;84.50;;;;;;5130625;28;20317;-65
2022/08/07 10:40:41;;;;;;;1.95;1.17;;;22.40;84.50;;;;;;5119373;28;20138;-65
2022/08/07 10:43:19;;;;;;;1.92;1.17;;;22.40;84.50;;;;;;5127166;27;20613;-65
2022/08/07 10:46:00;;;;;;;2.42;1.58;;;22.40;84.50;;;;;;5123937;27;20043;-65
2022/08/07 10:49:03;;;;;;;1.92;1.20;;;22.40;84.50;;;;;;5126591;27;20102;-65
2022/08/07 10:51:39;;;;;;;2.67;1.40;;;22.40;84.50;;;;;;5134235;27;20082;-65
2022/08/07 10:54:20;;;;;;;1.70;1.33;;;22.40;84.50;;;;;;5135160;27;20083;-65
2022/08/07 10:57:03;;;;;;;2.15;1.42;;;22.40;84.50;;;;;;5134521;27;20114;-65
2022/08/07 10:59:47;;;;;;;1.83;1.13;;;22.40;84.50;;;;;;5133900;27;20855;-65
2022/08/07 11:02:37;;;;;;;2.38;1.30;;;22.40;84.50;;;;;;5118923;27;20126;-65
2022/08/07 11:05:24;;;;;;;3.00;1.05;;;22.40;84.50;;;;;;5133831;27;20066;-65
2022/08/07 11:07:58;;;;;;;1.92;1.17;;;22.40;84.50;;;;;;5134789;27;20051;-65
2022/08/07 11:10:43;;;;;;;1.52;1.02;;;22.40;84.50;;;;;;5133544;27;20050;-65
2022/08/07 11:13:17;;;;;;;2.35;1.15;;;22.40;84.50;;;;;;5134403;27;20050;-65
2022/08/07 11:15:47;;;;;;;2.97;1.60;;;22.40;84.50;;;;;;5133401;27;20055;-65
2022/08/07 11:18:44;;;;;;;1.58;1.10;;;22.40;84.50;;;;;;5124870;27;20047;-64
2022/08/07 11:21:23;;;;;;;1.33;1.02;;;22.40;84.60;;;;;;5134722;27;20104;-65
2022/08/07 11:24:00;;;;;;;1.30;1.10;;;22.40;84.60;;;;;;5134551;27;20047;-65
2022/08/07 11:26:39;;;;;;;1.70;1.20;;;22.40;84.60;;;;;;5133047;27;20058;-65
2022/08/07 11:29:13;;;;;;;1.63;1.13;;;22.40;84.60;;;;;;5133737;27;20047;-65
2022/08/07 11:31:54;;;;;;;2.92;1.25;;;22.40;84.60;;;;;;5133136;27;20123;-65
2022/08/07 11:34:35;;;;;;;1.77;1.13;;;22.40;84.60;;;;;;5126178;27;20051;-65
2022/08/07 11:37:11;;;;;;;2.50;1.20;;;22.40;84.60;;;;;;5131624;27;20118;-65
2022/08/07 11:40:06;;;;;;;2.00;1.27;;;22.40;84.60;;;;;;5127425;27;20369;-66
2022/08/07 11:42:54;;;;;;;1.77;0.88;;;22.40;84.60;;;;;;5117434;27;20100;-65
2022/08/07 11:45:54;;;;;;;2.00;1.20;;;22.40;84.70;;;;;;5121449;27;20040;-65
2022/08/07 11:48:26;;;;;;;1.70;1.13;;;22.40;84.60;;;;;;5127615;27;20043;-65
2022/08/07 11:51:16;;;;;;;2.08;1.20;;;22.40;84.60;;;;;;5132626;27;20100;-65
2022/08/07 11:54:03;;;;;;;1.08;0.98;;;22.40;84.60;;;;;;5133960;27;20067;-65
2022/08/07 11:56:48;;;;;;;;;;;22.40;84.60;;;;;;5112639;27;20496;-65
2022/08/07 11:59:40;;;;;;;1.63;1.10;;;22.40;84.70;;;;;;5124087;27;19946;-65
2022/08/07 12:02:19;;;;;;;1.77;0.93;;;22.40;84.60;;;;;;5132891;27;20057;-65
2022/08/07 12:05:06;;;;;;;1.60;0.98;;;22.40;84.60;;;;;;5129303;27;20043;-65
2022/08/07 12:07:43;;;;;;;2.03;1.15;;;22.40;84.60;;;;;;5132621;27;20365;-65
2022/08/07 12:10:08;;;;;;;1.55;0.90;;;22.40;84.70;;;;;;5106536;27;20058;-65
2022/08/07 12:13:10;;;;;;;1.67;0.98;;;22.40;84.60;;;;;;5131885;27;20039;-66
2022/08/07 12:15:44;;;;;;;1.48;1.10;;;22.40;84.70;;;;;;5127125;27;20045;-66
2022/08/07 12:18:30;;;;;;;2.25;1.40;;;22.40;84.70;;;;;;5148875;27;20065;-65
2022/08/07 12:21:13;;;;;;;2.28;1.48;;;22.40;84.70;;;;;;5141927;27;20070;-65
2022/08/07 12:23:58;;;;;;;1.63;1.10;;;22.40;84.70;;;;;;5145063;27;20126;-65
2022/08/07 12:27:05;;;;;;;1.92;1.05;;;22.40;84.70;;;;;;5144297;27;20035;-65
2022/08/07 12:29:41;;;;;;;1.98;0.90;;;22.40;84.70;;;;;;5127644;27;20138;-65
2022/08/07 12:32:14;;;;;;;1.67;1.00;;;22.40;84.70;;;;;;5141848;27;20647;-65
2022/08/07 12:34:42;;;;;;;1.88;1.20;;;22.40;84.70;;;;;;5147749;27;20090;-65
2022/08/07 12:37:10;;;;;;;1.15;1.05;;;22.40;84.70;;;;;;5146600;27;20046;-65
2022/08/07 12:39:38;;;;;;;1.52;1.10;;;22.40;84.70;;;;;;5145966;27;20057;-65
2022/08/07 12:42:07;;;;;;;1.85;1.23;;;22.40;84.70;;;;;;5125431;27;20039;-65
2022/08/07 12:44:34;;;;;;;2.22;1.20;;;22.40;84.70;;;;;;5132500;27;20114;-65
2022/08/07 12:47:09;;;;;;;2.13;1.30;;;22.40;84.70;;;;;;5143698;27;20047;-65
2022/08/07 12:50:13;;;;;;;1.45;1.15;;;22.40;84.70;;;;;;5130012;27;20526;-63
2022/08/07 12:53:02;;;;;;;1.80;1.25;;;22.40;84.70;;;;;;5122610;27;20539;-65
2022/08/07 12:55:39;;;;;;;1.60;1.10;;;22.40;84.70;;;;;;5131602;27;20070;-65
2022/08/07 12:58:08;;;;;;;1.42;1.05;;;22.40;84.70;;;;;;5132513;27;20122;-64
2022/08/07 13:00:53;;;;;;;1.58;0.98;;;22.40;84.70;;;;;;5130835;27;20082;-64
2022/08/07 13:03:25;;;;;;;1.98;1.33;;;22.40;84.70;;;;;;5124100;27;20043;-67
2022/08/07 13:06:20;;;;;;;2.20;1.10;;;22.40;84.60;;;;;;5128075;27;20069;-65
2022/08/07 13:09:27;;;;;;;1.63;1.00;;;22.40;84.60;;;;;;5110662;27;20058;-65
2022/08/07 13:12:29;;;;;;;1.70;1.02;;;22.40;84.60;;;;;;5136706;27;20046;-65
2022/08/07 13:15:12;;;;;;;1.40;1.15;;;22.40;84.60;;;;;;5134025;27;20070;-65
2022/08/07 13:18:02;;;;;;;1.90;1.25;;;22.50;84.70;;;;;;5108314;27;20047;-65
2022/08/07 13:20:38;;;;;;;1.23;0.82;;;22.40;84.60;;;;;;5127230;27;20046;-65
2022/08/07 13:23:07;;;;;;;1.45;1.05;;;22.40;84.60;;;;;;5123598;27;20047;-65
2022/08/07 13:25:41;;;;;;;1.83;1.00;;;22.50;84.70;;;;;;5131052;27;20039;-64